Time;durP1;ratioP1;P1;durP2;ratioP2;P2;SDS_P1;SDS_P2;PMS_P1;PMS_P2;Temp;Humidity;BMP_temperature;BMP_pressure;BME280_temperature;BME280_humidity;BME280_pressure;Samples;Min_cycle;Max_cycle;Signal;HPM_P1;HPM_P2
2021/03/29 00:02:05;;;;;;;13.20;7.57;;;10.40;99.90;;;;;;4965428;28;20476;-79
2021/03/29 00:04:30;;;;;;;11.47;8.03;;;10.40;99.90;;;;;;4996727;28;20459;-79
2021/03/29 00:06:59;;;;;;;15.67;7.70;;;10.40;99.90;;;;;;4979227;28;20497;-78
2021/03/29 00:09:27;;;;;;;14.40;7.60;;;10.40;99.90;;;;;;4964643;28;20256;-77
2021/03/29 00:11:54;;;;;;;11.27;7.20;;;10.20;99.90;;;;;;4964975;28;20531;-75
2021/03/29 00:14:21;;;;;;;14.70;7.23;;;10.30;99.90;;;;;;4979736;28;20496;-77
2021/03/29 00:16:48;;;;;;;10.60;7.77;;;10.20;99.90;;;;;;4964255;28;20467;-77
2021/03/29 00:19:14;;;;;;;9.80;7.17;;;10.40;99.90;;;;;;4963181;28;20456;-78
2021/03/29 00:21:40;;;;;;;9.57;7.70;;;10.40;99.90;;;;;;4965078;28;20468;-78
2021/03/29 00:24:07;;;;;;;15.33;8.30;;;10.40;99.90;;;;;;4964450;28;20178;-78
2021/03/29 00:26:35;;;;;;;12.47;8.47;;;10.40;99.90;;;;;;4978719;28;20436;-78
2021/03/29 00:29:00;;;;;;;11.37;7.23;;;10.50;99.90;;;;;;4965117;28;20441;-78
2021/03/29 00:31:26;;;;;;;17.87;7.83;;;10.50;99.90;;;;;;4995131;28;20490;-76
2021/03/29 00:33:53;;;;;;;11.33;7.70;;;10.50;99.90;;;;;;4977169;28;20614;-77
2021/03/29 00:36:23;;;;;;;20.03;7.77;;;10.60;99.90;;;;;;4992282;28;20213;-77
2021/03/29 00:38:49;;;;;;;13.60;8.37;;;10.60;99.90;;;;;;4977627;28;20461;-75
2021/03/29 00:41:16;;;;;;;16.13;8.13;;;10.60;99.90;;;;;;4961068;28;20461;-79
2021/03/29 00:43:43;;;;;;;15.33;7.10;;;10.60;99.90;;;;;;4981134;28;20417;-79
2021/03/29 00:46:10;;;;;;;9.60;5.93;;;10.60;99.90;;;;;;4965976;28;20439;-76
2021/03/29 00:48:37;;;;;;;15.93;5.70;;;10.60;99.90;;;;;;4964760;28;20435;-76
2021/03/29 00:51:24;;;;;;;17.43;7.70;;;10.70;99.90;;;;;;4963175;28;20969;-76
2021/03/29 00:53:55;;;;;;;12.50;5.87;;;10.70;99.90;;;;;;4964156;28;20436;-74
2021/03/29 00:56:22;;;;;;;8.63;6.27;;;10.70;99.90;;;;;;4980797;28;20445;-78
2021/03/29 00:58:49;;;;;;;11.20;5.93;;;10.80;99.90;;;;;;4964141;28;20461;-78
2021/03/29 01:01:16;;;;;;;11.77;5.90;;;10.70;99.90;;;;;;4980518;28;20978;-76
2021/03/29 01:03:47;;;;;;;14.87;7.13;;;10.80;99.90;;;;;;4964037;28;20429;-79
2021/03/29 01:06:16;;;;;;;11.07;6.03;;;10.80;99.90;;;;;;4963443;28;20421;-79
2021/03/29 01:08:45;;;;;;;9.43;5.47;;;10.70;99.90;;;;;;4992221;28;20488;-78
2021/03/29 01:11:16;;;;;;;9.27;5.93;;;10.70;99.90;;;;;;4962758;28;20527;-78
2021/03/29 01:13:45;;;;;;;15.00;6.03;;;10.60;99.90;;;;;;4964271;28;20443;-78
2021/03/29 01:16:13;;;;;;;12.23;6.27;;;10.60;99.90;;;;;;4961949;28;20784;-76
2021/03/29 01:18:42;;;;;;;10.13;5.23;;;10.60;99.90;;;;;;4963468;28;20453;-77
2021/03/29 01:21:10;;;;;;;9.60;5.37;;;10.60;99.90;;;;;;4962937;28;20472;-77
2021/03/29 01:23:37;;;;;;;8.83;5.50;;;10.50;99.90;;;;;;4994450;28;20516;-79
2021/03/29 01:26:13;;;;;;;13.20;6.03;;;10.40;99.90;;;;;;4962262;28;20476;-77
2021/03/29 01:28:39;;;;;;;11.30;6.33;;;10.30;99.90;;;;;;4994829;28;20574;-79
2021/03/29 01:31:05;;;;;;;7.57;5.53;;;10.20;99.90;;;;;;4993434;28;20798;-79
2021/03/29 01:33:31;;;;;;;8.07;5.67;;;10.10;99.90;;;;;;4978587;28;20432;-78
2021/03/29 01:36:00;;;;;;;15.70;6.37;;;10.00;99.90;;;;;;4977386;28;20472;-79
2021/03/29 01:38:27;;;;;;;12.00;6.10;;;9.90;99.90;;;;;;4978168;28;20434;-76
2021/03/29 01:40:55;;;;;;;10.30;5.90;;;10.00;99.90;;;;;;4961155;28;20512;-79
2021/03/29 01:43:21;;;;;;;11.53;6.20;;;9.90;99.90;;;;;;4963676;28;20437;-79
2021/03/29 01:45:48;;;;;;;11.00;6.63;;;9.90;99.90;;;;;;4963516;28;20479;-78
2021/03/29 01:48:14;;;;;;;13.73;7.10;;;9.80;99.90;;;;;;4962518;28;20563;-77
2021/03/29 01:50:43;;;;;;;11.13;6.33;;;9.90;99.90;;;;;;4978030;28;20566;-77
2021/03/29 01:53:10;;;;;;;8.93;6.00;;;9.80;99.90;;;;;;4962200;28;20432;-78
2021/03/29 01:55:37;;;;;;;17.23;7.10;;;9.80;99.90;;;;;;4962890;28;20468;-78
2021/03/29 01:58:04;;;;;;;8.60;5.50;;;9.90;99.90;;;;;;4962913;28;20452;-77
2021/03/29 02:01:01;;;;;;;12.73;5.70;;;9.80;99.90;;;;;;4962975;28;21297;-78
2021/03/29 02:03:28;;;;;;;8.67;5.00;;;9.80;99.90;;;;;;4962433;28;20429;-78
2021/03/29 02:05:55;;;;;;;8.97;5.70;;;9.70;99.90;;;;;;4979647;28;20518;-76
2021/03/29 02:08:24;;;;;;;13.10;5.83;;;9.60;99.90;;;;;;4962913;28;20422;-75
2021/03/29 02:10:51;;;;;;;10.10;5.60;;;9.50;99.90;;;;;;4979336;28;20460;-79
2021/03/29 02:13:23;;;;;;;10.30;4.80;;;9.40;99.90;;;;;;4994209;28;20475;-76
2021/03/29 02:15:52;;;;;;;9.47;6.30;;;9.40;99.90;;;;;;4978882;28;20421;-77
2021/03/29 02:18:24;;;;;;;12.43;5.90;;;9.40;99.90;;;;;;4979356;28;21175;-79
2021/03/29 02:20:50;;;;;;;10.20;6.10;;;9.40;99.90;;;;;;4962342;28;20472;-76
2021/03/29 02:23:20;;;;;;;11.70;5.50;;;9.40;99.90;;;;;;4962619;28;20432;-75
2021/03/29 02:25:48;;;;;;;11.40;5.50;;;9.30;99.90;;;;;;4976152;28;20433;-75
2021/03/29 02:28:14;;;;;;;7.90;5.47;;;9.30;99.90;;;;;;4961924;28;20469;-76
2021/03/29 02:30:42;;;;;;;19.43;7.70;;;9.20;99.90;;;;;;4962221;28;20531;-77
2021/03/29 02:33:11;;;;;;;10.23;5.73;;;9.20;99.90;;;;;;4978607;28;20429;-77
2021/03/29 02:35:38;;;;;;;17.30;6.10;;;9.20;99.90;;;;;;4976874;28;20437;-76
2021/03/29 02:38:10;;;;;;;12.07;5.60;;;9.20;99.90;;;;;;4961634;28;20444;-76
2021/03/29 02:40:36;;;;;;;6.90;5.00;;;9.10;99.90;;;;;;4961749;28;20499;-78
2021/03/29 02:43:04;;;;;;;10.87;5.80;;;9.10;99.90;;;;;;4961918;28;20421;-77
2021/03/29 02:45:33;;;;;;;11.97;7.43;;;9.00;99.90;;;;;;4965380;28;20425;-79
2021/03/29 02:48:07;;;;;;;10.17;5.87;;;9.00;99.90;;;;;;4960863;28;20451;-76
2021/03/29 02:50:36;;;;;;;10.00;5.30;;;9.00;99.90;;;;;;4963767;28;20974;-77
2021/03/29 02:53:07;;;;;;;11.00;5.83;;;9.00;99.90;;;;;;4961976;28;20417;-76
2021/03/29 02:55:34;;;;;;;9.23;5.00;;;9.10;99.90;;;;;;4962082;28;20558;-79
2021/03/29 02:58:01;;;;;;;9.27;5.80;;;9.10;99.90;;;;;;4992147;28;20460;-78
2021/03/29 03:00:27;;;;;;;13.57;7.60;;;9.10;99.90;;;;;;4978835;28;20946;-77
2021/03/29 03:02:59;;;;;;;17.40;6.80;;;9.10;99.90;;;;;;4966426;28;20425;-79
2021/03/29 03:05:27;;;;;;;13.93;6.60;;;9.10;99.90;;;;;;4981452;28;20428;-74
2021/03/29 03:07:54;;;;;;;8.07;6.20;;;9.10;99.90;;;;;;4965122;28;20432;-76
2021/03/29 03:10:20;;;;;;;12.67;5.87;;;9.10;99.90;;;;;;4996981;28;20539;-76
2021/03/29 03:12:48;;;;;;;18.40;6.93;;;9.00;99.90;;;;;;4964703;28;21004;-79
2021/03/29 03:15:19;;;;;;;8.13;5.17;;;9.00;99.90;;;;;;4965995;28;20482;-77
2021/03/29 03:17:45;;;;;;;9.93;6.10;;;8.90;99.90;;;;;;4965402;28;20468;-77
2021/03/29 03:20:12;;;;;;;12.57;6.07;;;8.80;99.90;;;;;;4982647;28;20476;-77
2021/03/29 03:23:03;;;;;;;80.37;52.20;;;8.80;99.90;;;;;;4966222;28;20460;-76
2021/03/29 03:25:35;;;;;;;15.90;7.23;;;8.80;99.90;;;;;;4965491;28;20440;-78
2021/03/29 03:28:06;;;;;;;12.40;6.60;;;8.70;99.90;;;;;;4965361;28;20774;-78
2021/03/29 03:30:34;;;;;;;13.60;5.63;;;8.70;99.90;;;;;;4964600;28;20460;-77
2021/03/29 03:33:01;;;;;;;16.73;6.17;;;8.70;99.90;;;;;;4982003;28;20515;-79
2021/03/29 03:35:28;;;;;;;17.57;6.10;;;8.60;99.90;;;;;;4966791;28;20448;-78
2021/03/29 03:38:18;;;;;;;12.30;5.70;;;8.50;99.90;;;;;;4965814;28;20535;-78
2021/03/29 03:40:47;;;;;;;10.00;6.17;;;8.50;99.90;;;;;;4966813;28;20551;-79
2021/03/29 03:43:15;;;;;;;7.93;5.50;;;8.50;99.90;;;;;;4982194;28;20456;-77
2021/03/29 03:45:51;;;;;;;9.50;5.00;;;8.40;99.90;;;;;;4982075;28;20428;-76
2021/03/29 03:48:18;;;;;;;9.20;4.90;;;8.30;99.90;;;;;;4981802;28;20507;-78
2021/03/29 03:50:48;;;;;;;11.80;4.93;;;8.30;99.90;;;;;;4965922;28;20456;-78
2021/03/29 03:53:14;;;;;;;9.20;5.10;;;8.30;99.90;;;;;;4965768;28;20515;-78
2021/03/29 03:55:40;;;;;;;6.40;4.73;;;8.30;99.90;;;;;;4966586;28;20491;-77
2021/03/29 03:58:06;;;;;;;7.30;4.40;;;8.30;99.90;;;;;;4979657;28;21117;-79
2021/03/29 04:00:32;;;;;;;8.30;5.57;;;8.30;99.90;;;;;;4965399;28;20522;-78
2021/03/29 04:02:59;;;;;;;9.93;4.90;;;8.30;99.90;;;;;;4965512;28;20213;-78
2021/03/29 04:05:24;;;;;;;14.63;5.37;;;8.20;99.90;;;;;;4982021;28;20436;-79
2021/03/29 04:07:51;;;;;;;11.13;6.07;;;8.20;99.90;;;;;;4965840;28;21207;-76
2021/03/29 04:12:45;;;;;;;7.17;5.57;;;8.10;99.90;;;;;;4965704;28;20448;-77
2021/03/29 04:15:11;;;;;;;8.53;5.73;;;8.10;99.90;;;;;;4964976;28;20873;-78
2021/03/29 04:17:37;;;;;;;8.80;5.70;;;8.10;99.90;;;;;;4995987;28;20425;-78
2021/03/29 04:20:05;;;;;;;10.00;6.10;;;8.00;99.90;;;;;;4980185;28;20455;-78
2021/03/29 04:22:31;;;;;;;17.63;6.60;;;8.00;99.90;;;;;;4958882;28;20205;-77
2021/03/29 04:24:57;;;;;;;12.80;7.57;;;8.00;99.90;;;;;;4979797;28;20949;-77
2021/03/29 04:27:22;;;;;;;12.63;5.97;;;8.00;99.90;;;;;;4996340;28;20213;-76
2021/03/29 04:29:48;;;;;;;9.17;4.50;;;8.00;99.90;;;;;;4964186;28;20284;-77
2021/03/29 04:32:13;;;;;;;10.47;5.77;;;7.90;99.90;;;;;;4965103;28;20659;-79
2021/03/29 04:34:39;;;;;;;7.60;5.63;;;7.80;99.90;;;;;;4965296;28;20182;-79
2021/03/29 04:37:04;;;;;;;12.83;5.43;;;7.80;99.90;;;;;;4965093;28;20221;-76
2021/03/29 04:39:30;;;;;;;10.17;5.10;;;7.80;99.90;;;;;;4964897;28;20229;-76
2021/03/29 04:41:56;;;;;;;10.73;5.70;;;7.80;99.90;;;;;;4965148;28;20904;-76
2021/03/29 04:44:21;;;;;;;14.90;6.80;;;7.80;99.90;;;;;;4966403;28;20874;-78
2021/03/29 04:46:47;;;;;;;14.83;4.43;;;7.90;99.90;;;;;;4981315;28;20822;-78
2021/03/29 04:49:12;;;;;;;6.67;5.10;;;7.90;99.90;;;;;;4965611;28;20616;-77
2021/03/29 04:51:38;;;;;;;16.20;5.67;;;7.90;99.90;;;;;;4964679;28;20209;-79
2021/03/29 04:54:04;;;;;;;10.23;5.40;;;8.00;99.90;;;;;;4964734;28;20193;-77
2021/03/29 04:56:30;;;;;;;10.57;4.97;;;8.00;99.90;;;;;;4963901;28;20205;-77
2021/03/29 04:58:55;;;;;;;15.07;5.23;;;8.10;99.90;;;;;;4996355;28;20460;-76
2021/03/29 05:01:21;;;;;;;13.43;6.43;;;8.10;99.90;;;;;;4980953;28;20325;-77
2021/03/29 05:03:46;;;;;;;8.77;5.43;;;8.10;99.90;;;;;;4981904;28;20268;-79
2021/03/29 05:06:12;;;;;;;8.00;5.20;;;8.00;99.90;;;;;;4980597;28;20181;-79
2021/03/29 05:08:37;;;;;;;7.83;4.67;;;8.00;99.90;;;;;;4981630;28;20197;-78
2021/03/29 05:11:03;;;;;;;8.50;4.80;;;8.00;99.90;;;;;;4963587;28;20178;-76
2021/03/29 05:13:28;;;;;;;9.60;5.10;;;8.00;99.90;;;;;;4963514;28;20316;-76
2021/03/29 05:15:54;;;;;;;9.00;5.27;;;8.00;99.90;;;;;;4964636;28;22024;-77
2021/03/29 05:18:19;;;;;;;13.23;4.03;;;7.90;99.90;;;;;;4980210;28;21441;-76
2021/03/29 05:20:45;;;;;;;12.20;4.40;;;7.90;99.90;;;;;;4964851;28;20578;-79
2021/03/29 05:23:10;;;;;;;13.43;4.97;;;7.80;99.90;;;;;;4963671;28;20185;-79
2021/03/29 05:25:36;;;;;;;8.33;4.57;;;7.80;99.90;;;;;;4979133;28;20201;-78
2021/03/29 05:28:01;;;;;;;9.30;5.40;;;7.90;99.90;;;;;;4980344;28;20639;-78
2021/03/29 05:30:27;;;;;;;10.97;3.93;;;7.90;99.90;;;;;;4994830;28;20201;-77
2021/03/29 05:32:52;;;;;;;7.73;4.47;;;8.00;99.90;;;;;;4963792;28;20224;-77
2021/03/29 05:35:18;;;;;;;12.20;3.70;;;8.00;99.90;;;;;;4964075;28;20229;-79
2021/03/29 05:37:44;;;;;;;5.60;3.50;;;8.10;99.90;;;;;;4994661;28;20181;-77
2021/03/29 05:40:10;;;;;;;13.63;3.63;;;8.10;99.90;;;;;;4978861;28;20213;-79
2021/03/29 05:42:36;;;;;;;10.80;4.60;;;8.20;99.90;;;;;;4964056;28;20210;-78
2021/03/29 05:45:06;;;;;;;7.63;3.50;;;8.30;99.90;;;;;;4980521;28;20534;-76
2021/03/29 05:47:33;;;;;;;9.43;3.13;;;8.30;99.90;;;;;;4963390;28;20237;-77
2021/03/29 05:50:01;;;;;;;8.33;4.07;;;8.50;99.90;;;;;;4977179;28;20455;-79
2021/03/29 05:52:28;;;;;;;11.63;3.43;;;8.60;99.90;;;;;;4980420;28;20440;-77
2021/03/29 05:54:58;;;;;;;10.43;4.20;;;8.80;99.90;;;;;;4961954;28;20531;-78
2021/03/29 05:57:25;;;;;;;10.73;3.97;;;8.90;99.90;;;;;;4977771;28;20528;-77
2021/03/29 05:59:51;;;;;;;5.47;2.93;;;9.10;99.90;;;;;;4963572;28;20484;-76
2021/03/29 06:02:31;;;;;;;8.57;3.30;;;9.40;99.90;;;;;;4963323;28;20500;-77
2021/03/29 06:04:57;;;;;;;8.20;3.57;;;9.50;99.90;;;;;;4994214;28;20275;-78
2021/03/29 06:07:28;;;;;;;6.77;3.20;;;9.70;99.90;;;;;;4994045;28;20441;-78
2021/03/29 06:10:15;;;;;;;8.03;3.10;;;9.80;99.90;;;;;;4979090;28;20452;-79
2021/03/29 06:12:46;;;;;;;4.50;2.87;;;10.00;99.90;;;;;;4978708;28;20429;-76
2021/03/29 06:15:13;;;;;;;7.20;4.13;;;10.30;99.90;;;;;;4962633;28;20433;-77
2021/03/29 06:17:38;;;;;;;7.80;3.27;;;10.70;99.90;;;;;;4963374;28;20428;-78
2021/03/29 06:20:05;;;;;;;5.10;2.90;;;11.10;99.90;;;;;;4960573;28;20461;-79
2021/03/29 06:22:36;;;;;;;9.30;3.20;;;11.60;99.90;;;;;;4979671;28;20292;-77
2021/03/29 06:25:21;;;;;;;6.10;3.30;;;12.10;99.90;;;;;;4979077;28;20439;-77
2021/03/29 06:27:54;;;;;;;11.60;3.63;;;12.50;99.90;;;;;;4962242;28;20464;-78
2021/03/29 06:30:34;;;;;;;13.73;4.87;;;13.00;99.90;;;;;;4979931;28;20452;-80
2021/03/29 06:33:17;;;;;;;9.50;3.33;;;13.80;99.90;;;;;;4963189;28;20524;-76
2021/03/29 06:35:45;;;;;;;8.93;4.33;;;14.30;99.90;;;;;;4979854;28;20433;-77
2021/03/29 06:38:11;;;;;;;4.33;3.57;;;14.80;99.90;;;;;;4978060;28;20893;-77
2021/03/29 06:40:39;;;;;;;8.43;3.70;;;15.10;99.90;;;;;;4963534;28;20448;-80
2021/03/29 06:43:34;;;;;;;6.20;3.33;;;15.50;99.90;;;;;;4963976;28;20190;-74
2021/03/29 06:46:19;;;;;;;5.13;3.30;;;16.10;99.90;;;;;;4952743;28;20433;-79
2021/03/29 06:48:45;;;;;;;7.70;4.00;;;16.50;99.90;;;;;;4964748;28;20459;-79
2021/03/29 06:51:13;;;;;;;9.40;4.10;;;16.80;99.90;;;;;;4979183;28;20432;-79
2021/03/29 06:53:51;;;;;;;11.03;4.13;;;17.00;99.90;;;;;;4995267;28;20268;-78
2021/03/29 06:56:23;;;;;;;8.50;4.50;;;16.90;99.90;;;;;;4963895;28;21000;-76
2021/03/29 06:58:50;;;;;;;8.97;4.00;;;16.80;99.90;;;;;;4978184;28;21582;-76
2021/03/29 07:01:20;;;;;;;5.73;3.33;;;17.00;99.90;;;;;;4962161;28;20472;-79
2021/03/29 07:03:47;;;;;;;7.13;3.60;;;17.00;99.90;;;;;;4979858;28;20433;-76
2021/03/29 07:06:21;;;;;;;8.30;3.40;;;17.00;99.90;;;;;;4978274;28;20429;-77
2021/03/29 07:08:47;;;;;;;12.57;4.90;;;17.20;99.90;;;;;;4962835;28;20451;-78
2021/03/29 07:11:15;;;;;;;9.20;4.67;;;17.50;99.90;;;;;;4963528;28;20479;-77
2021/03/29 07:13:42;;;;;;;8.43;5.20;;;17.20;99.90;;;;;;4979753;28;20559;-75
2021/03/29 07:16:08;;;;;;;11.97;5.00;;;16.90;99.90;;;;;;4978223;28;20529;-76
2021/03/29 07:18:35;;;;;;;16.90;5.23;;;16.90;99.90;;;;;;4962391;28;20436;-78
2021/03/29 07:21:03;;;;;;;15.57;5.67;;;16.80;99.90;;;;;;4962298;28;20465;-78
2021/03/29 07:23:29;;;;;;;12.57;4.70;;;17.30;99.90;;;;;;4964340;28;20457;-78
2021/03/29 07:25:55;;;;;;;11.70;5.37;;;17.50;99.90;;;;;;4978631;28;20496;-76
2021/03/29 07:28:20;;;;;;;7.37;4.60;;;17.70;99.90;;;;;;4963508;28;20895;-79
2021/03/29 07:30:48;;;;;;;12.23;5.07;;;18.60;99.90;;;;;;4978266;28;20589;-79
2021/03/29 07:33:16;;;;;;;8.07;5.10;;;19.10;99.90;;;;;;4965010;28;20174;-75
2021/03/29 07:35:50;;;;;;;9.07;4.80;;;19.20;99.90;;;;;;4964413;28;20539;-77
2021/03/29 07:38:23;;;;;;;6.03;4.00;;;19.20;99.90;;;;;;4979530;28;20949;-80
2021/03/29 07:40:59;;;;;;;11.50;3.40;;;19.40;99.90;;;;;;4976254;28;20493;-74
2021/03/29 07:43:26;;;;;;;7.60;3.00;;;19.80;99.90;;;;;;4960787;28;20459;-74
2021/03/29 07:46:04;;;;;;;5.03;3.00;;;19.30;99.30;;;;;;4960164;28;20432;-74
2021/03/29 07:48:41;;;;;;;7.93;2.97;;;19.00;96.60;;;;;;4962985;28;20416;-76
2021/03/29 07:51:17;;;;;;;4.00;2.50;;;18.90;97.80;;;;;;4963515;28;20432;-76
2021/03/29 07:53:49;;;;;;;10.93;2.97;;;18.80;98.50;;;;;;4963793;28;20439;-76
2021/03/29 07:56:35;;;;;;;5.03;2.93;;;18.60;98.70;;;;;;4963161;28;20460;-76
2021/03/29 07:59:02;;;;;;;4.23;2.83;;;18.70;98.70;;;;;;4958895;28;20455;-73
2021/03/29 08:01:28;;;;;;;5.83;2.80;;;18.60;98.60;;;;;;4963337;28;20456;-75
2021/03/29 08:03:57;;;;;;;7.63;2.70;;;18.70;99.20;;;;;;4963587;28;20443;-74
2021/03/29 08:06:43;;;;;;;5.37;3.00;;;19.00;99.00;;;;;;4963061;28;20432;-74
2021/03/29 08:09:15;;;;;;;10.87;3.70;;;19.10;97.80;;;;;;4963872;28;20449;-76
2021/03/29 08:12:01;;;;;;;6.03;2.30;;;19.50;97.30;;;;;;4963573;28;20432;-74
2021/03/29 08:14:32;;;;;;;7.60;3.50;;;19.80;95.40;;;;;;4963838;28;22434;-74
2021/03/29 08:17:18;;;;;;;11.63;3.40;;;18.80;94.40;;;;;;4963244;28;20452;-72
2021/03/29 08:20:11;;;;;;;5.83;3.20;;;18.40;94.90;;;;;;4963428;28;20531;-74
2021/03/29 08:22:37;;;;;;;10.50;3.00;;;18.40;96.30;;;;;;4962864;28;20882;-74
2021/03/29 08:25:03;;;;;;;7.10;2.87;;;18.40;96.60;;;;;;4963137;28;20431;-74
2021/03/29 08:27:31;;;;;;;8.83;3.53;;;18.50;95.00;;;;;;4961909;28;20292;-74
2021/03/29 08:30:10;;;;;;;10.43;3.07;;;18.50;94.70;;;;;;4964014;28;21491;-74
2021/03/29 08:32:40;;;;;;;6.77;3.60;;;19.50;95.30;;;;;;4964149;28;20436;-75
2021/03/29 08:35:08;;;;;;;6.73;2.83;;;20.30;94.30;;;;;;4963092;28;20519;-76
2021/03/29 08:37:51;;;;;;;7.53;3.07;;;21.00;91.20;;;;;;4965112;28;20444;-75
2021/03/29 08:40:19;;;;;;;5.93;2.80;;;21.30;85.70;;;;;;4989527;28;20457;-74
2021/03/29 08:42:47;;;;;;;11.50;3.27;;;21.00;81.20;;;;;;4961119;28;20900;-75
2021/03/29 08:45:19;;;;;;;9.33;2.93;;;20.50;78.80;;;;;;4962149;28;20528;-76
2021/03/29 08:47:47;;;;;;;9.33;2.40;;;20.90;82.00;;;;;;4965272;28;20418;-76
2021/03/29 08:50:16;;;;;;;8.37;2.50;;;20.90;78.50;;;;;;4965539;28;20503;-77
2021/03/29 08:52:45;;;;;;;5.70;2.23;;;21.60;80.10;;;;;;4963751;28;20429;-76
2021/03/29 08:55:16;;;;;;;8.27;2.20;;;21.00;69.90;;;;;;4963999;28;20488;-76
2021/03/29 08:57:43;;;;;;;7.87;3.40;;;21.40;75.50;;;;;;4965306;28;20451;-78
2021/03/29 09:00:16;;;;;;;6.13;3.37;;;21.40;68.50;;;;;;4963608;28;20988;-76
2021/03/29 09:02:41;;;;;;;7.33;2.87;;;20.50;67.00;;;;;;4962455;28;20826;-76
2021/03/29 09:05:09;;;;;;;8.60;2.10;;;21.10;68.80;;;;;;4966087;28;20425;-79
2021/03/29 09:07:39;;;;;;;14.13;2.80;;;20.90;65.60;;;;;;4963579;28;20533;-77
2021/03/29 09:10:23;;;;;;;7.37;2.17;;;21.10;63.10;;;;;;4976878;28;20445;-75
2021/03/29 09:13:00;;;;;;;9.10;3.37;;;21.10;63.30;;;;;;4963986;28;20436;-76
2021/03/29 09:15:28;;;;;;;6.50;2.33;;;21.00;61.10;;;;;;4963786;28;20409;-75
2021/03/29 09:18:03;;;;;;;3.20;2.00;;;21.40;64.10;;;;;;4963863;28;20422;-76
2021/03/29 09:20:36;;;;;;;7.93;2.53;;;22.10;59.50;;;;;;4964620;28;20437;-80
2021/03/29 09:23:02;;;;;;;5.30;2.43;;;21.90;56.50;;;;;;4963512;28;20429;-78
2021/03/29 09:25:34;;;;;;;6.47;2.03;;;21.50;54.50;;;;;;4963780;28;20973;-78
2021/03/29 09:28:19;;;;;;;8.93;2.27;;;21.40;56.70;;;;;;4962245;28;20421;-75
2021/03/29 09:30:49;;;;;;;6.60;2.43;;;21.20;55.50;;;;;;4961624;28;20839;-77
2021/03/29 09:33:15;;;;;;;3.83;2.30;;;21.60;55.80;;;;;;4977574;28;20445;-76
2021/03/29 09:35:42;;;;;;;4.00;2.50;;;21.90;54.80;;;;;;4962383;28;20503;-75
2021/03/29 09:38:08;;;;;;;5.63;2.03;;;22.30;54.30;;;;;;4962736;28;20425;-77
2021/03/29 09:40:37;;;;;;;9.73;2.83;;;22.40;54.20;;;;;;4962611;28;20463;-77
2021/03/29 09:43:03;;;;;;;6.57;2.47;;;22.20;52.60;;;;;;4966298;28;20658;-75
2021/03/29 09:45:31;;;;;;;3.97;2.10;;;22.40;51.20;;;;;;4965463;28;20420;-78
2021/03/29 09:48:07;;;;;;;9.03;2.20;;;22.70;51.00;;;;;;4963984;28;20778;-76
2021/03/29 09:50:42;;;;;;;4.00;2.43;;;23.40;50.50;;;;;;4963289;28;20443;-76
2021/03/29 09:53:17;;;;;;;5.00;1.90;;;23.60;51.00;;;;;;4964637;28;20424;-76
2021/03/29 09:55:52;;;;;;;3.80;2.50;;;23.80;46.40;;;;;;4962963;28;21976;-76
2021/03/29 09:58:32;;;;;;;3.40;2.10;;;24.00;44.60;;;;;;4962936;28;20526;-77
2021/03/29 10:01:02;;;;;;;4.43;2.03;;;23.10;44.20;;;;;;4963913;28;20457;-79
2021/03/29 10:03:28;;;;;;;10.37;2.00;;;23.60;46.50;;;;;;4994705;28;20501;-78
2021/03/29 10:05:55;;;;;;;4.83;2.57;;;24.00;45.40;;;;;;4962151;28;20941;-77
2021/03/29 10:08:34;;;;;;;7.03;2.20;;;24.10;44.30;;;;;;4963201;28;20433;-77
2021/03/29 10:11:08;;;;;;;10.43;2.80;;;23.80;42.20;;;;;;4962610;28;20512;-76
2021/03/29 10:13:38;;;;;;;4.40;2.63;;;23.90;43.40;;;;;;4963102;28;20444;-76
2021/03/29 10:16:21;;;;;;;7.37;2.23;;;24.10;43.50;;;;;;4963061;28;20535;-78
2021/03/29 10:19:00;;;;;;;5.30;2.03;;;24.50;42.20;;;;;;4962163;28;20443;-76
2021/03/29 10:21:25;;;;;;;9.17;2.67;;;24.40;41.10;;;;;;4961012;28;20599;-76
2021/03/29 10:24:09;;;;;;;3.23;2.20;;;25.00;41.50;;;;;;4962654;28;20519;-76
2021/03/29 10:26:37;;;;;;;7.67;2.10;;;25.00;40.60;;;;;;4962917;28;20559;-76
2021/03/29 10:29:07;;;;;;;4.53;2.20;;;24.10;38.00;;;;;;4963718;28;20810;-75
2021/03/29 10:31:36;;;;;;;5.33;2.30;;;24.20;38.60;;;;;;4962999;28;20431;-76
2021/03/29 10:34:02;;;;;;;9.07;2.30;;;23.60;37.40;;;;;;4963113;28;20910;-76
2021/03/29 10:36:29;;;;;;;6.90;2.37;;;24.40;39.00;;;;;;4962548;28;20431;-77
2021/03/29 10:38:56;;;;;;;3.83;1.90;;;24.90;39.10;;;;;;4962865;28;20219;-77
2021/03/29 10:41:22;;;;;;;3.53;1.93;;;24.50;36.40;;;;;;4962215;28;20452;-76
2021/03/29 10:43:49;;;;;;;3.70;1.80;;;23.80;35.30;;;;;;4984127;28;20413;-76
2021/03/29 10:46:15;;;;;;;3.23;1.60;;;24.00;35.40;;;;;;4973013;28;20405;-75
2021/03/29 10:48:40;;;;;;;2.90;1.53;;;23.80;36.00;;;;;;4966683;28;20439;-77
2021/03/29 10:51:07;;;;;;;3.43;1.90;;;23.60;35.20;;;;;;4962735;28;20839;-77
2021/03/29 10:53:34;;;;;;;4.67;2.53;;;24.20;37.00;;;;;;4961771;28;20279;-77
2021/03/29 10:56:00;;;;;;;6.47;2.63;;;24.50;35.10;;;;;;4962719;28;20437;-77
2021/03/29 10:58:26;;;;;;;2.63;1.87;;;24.70;35.80;;;;;;4961506;28;20492;-77
2021/03/29 11:00:51;;;;;;;4.57;1.80;;;25.20;35.50;;;;;;4961308;28;20186;-76
2021/03/29 11:03:18;;;;;;;3.53;1.90;;;25.00;35.60;;;;;;4961185;28;20182;-77
2021/03/29 11:05:43;;;;;;;2.80;1.73;;;24.70;32.60;;;;;;4962370;28;20665;-77
2021/03/29 11:08:09;;;;;;;2.90;1.90;;;25.10;33.70;;;;;;4963245;28;20896;-76
2021/03/29 11:10:35;;;;;;;4.63;1.70;;;25.40;34.10;;;;;;4961610;28;20235;-76
2021/03/29 11:13:01;;;;;;;7.13;1.40;;;25.30;33.40;;;;;;4975789;28;20456;-77
2021/03/29 11:15:28;;;;;;;4.20;1.80;;;25.70;33.60;;;;;;4962440;28;20187;-77
2021/03/29 11:17:54;;;;;;;2.40;1.80;;;25.90;34.40;;;;;;4977592;28;20840;-77
2021/03/29 11:20:19;;;;;;;1.40;1.30;;;26.00;34.30;;;;;;4963557;28;20527;-77
2021/03/29 11:22:46;;;;;;;5.80;1.97;;;26.50;36.00;;;;;;4964381;28;20225;-77
2021/03/29 11:25:13;;;;;;;15.53;2.30;;;26.90;35.50;;;;;;4965703;28;20177;-76
2021/03/29 11:27:38;;;;;;;4.43;1.83;;;26.10;32.80;;;;;;4966631;28;20417;-78
2021/03/29 11:30:08;;;;;;;4.07;2.33;;;26.00;34.20;;;;;;4967254;28;20473;-77
2021/03/29 11:32:34;;;;;;;3.63;1.77;;;25.70;34.20;;;;;;4967085;28;20730;-76
2021/03/29 11:35:00;;;;;;;2.90;2.00;;;24.50;33.60;;;;;;4964550;28;20451;-76
2021/03/29 11:37:25;;;;;;;3.50;2.20;;;24.20;33.30;;;;;;4965447;28;20281;-76
2021/03/29 11:39:51;;;;;;;7.93;2.20;;;24.40;34.20;;;;;;4966882;28;20202;-76
2021/03/29 11:42:16;;;;;;;6.17;3.17;;;24.20;35.00;;;;;;4965332;28;20237;-77
2021/03/29 11:44:42;;;;;;;5.53;2.63;;;24.20;33.10;;;;;;4965654;28;20170;-77
2021/03/29 11:47:07;;;;;;;5.30;2.00;;;24.50;33.70;;;;;;4964540;28;20189;-76
2021/03/29 11:49:33;;;;;;;5.33;2.63;;;24.50;34.60;;;;;;4965984;28;20185;-76
2021/03/29 11:51:58;;;;;;;3.90;2.23;;;25.00;35.60;;;;;;4965846;28;20185;-77
2021/03/29 11:54:24;;;;;;;3.33;2.00;;;25.60;36.80;;;;;;4965460;28;20189;-77
2021/03/29 11:56:50;;;;;;;5.57;3.20;;;25.00;33.90;;;;;;4965648;28;20209;-78
2021/03/29 11:59:15;;;;;;;5.30;2.60;;;25.10;33.40;;;;;;4969890;28;20201;-77
2021/03/29 12:01:47;;;;;;;6.03;2.43;;;25.40;36.70;;;;;;4975751;28;20519;-77
2021/03/29 12:04:20;;;;;;;5.47;2.83;;;26.00;37.00;;;;;;4975867;28;20176;-77
2021/03/29 12:06:52;;;;;;;8.47;2.30;;;25.20;35.60;;;;;;4975908;28;20433;-77
2021/03/29 12:12:00;;;;;;;10.47;5.03;;;26.10;37.10;;;;;;4975790;28;20445;-76
2021/03/29 12:14:29;;;;;;;15.03;2.43;;;25.20;34.70;;;;;;4965422;28;20793;-77
2021/03/29 12:16:56;;;;;;;4.63;2.23;;;25.20;36.50;;;;;;4958587;28;20785;-76
2021/03/29 12:19:21;;;;;;;3.07;2.00;;;25.30;35.30;;;;;;4956113;29;20426;-75
2021/03/29 12:21:54;;;;;;;3.60;2.17;;;25.60;36.10;;;;;;4956316;28;20456;-76
2021/03/29 12:24:22;;;;;;;3.87;2.77;;;26.10;36.80;;;;;;4956314;28;20659;-78
2021/03/29 12:26:49;;;;;;;3.57;1.90;;;26.20;36.40;;;;;;4956235;29;20919;-77
2021/03/29 12:29:17;;;;;;;2.40;2.00;;;26.70;35.90;;;;;;4963189;28;20424;-77
2021/03/29 12:31:44;;;;;;;3.43;2.23;;;26.20;34.60;;;;;;4975287;28;20418;-77
2021/03/29 12:34:10;;;;;;;4.90;2.50;;;26.20;34.90;;;;;;4975006;28;20405;-77
2021/03/29 12:36:42;;;;;;;2.67;2.37;;;25.40;33.80;;;;;;4975395;28;20409;-77
2021/03/29 12:39:32;;;;;;;5.33;2.40;;;25.40;35.20;;;;;;4974709;28;20437;-77
2021/03/29 12:42:00;;;;;;;5.43;2.60;;;25.30;36.20;;;;;;4975321;28;21175;-76
2021/03/29 12:44:32;;;;;;;4.33;1.87;;;25.70;37.10;;;;;;4978145;28;20492;-79
2021/03/29 12:47:00;;;;;;;3.97;2.13;;;25.60;36.80;;;;;;4979555;28;20981;-79
2021/03/29 12:49:26;;;;;;;3.77;2.33;;;25.60;36.60;;;;;;4993604;28;20782;-78
2021/03/29 12:51:54;;;;;;;2.63;2.10;;;25.00;35.10;;;;;;4976666;28;20440;-77
2021/03/29 12:54:27;;;;;;;3.97;2.10;;;25.40;35.10;;;;;;4971933;28;20824;-77
2021/03/29 12:56:53;;;;;;;7.33;2.83;;;25.90;35.60;;;;;;4975006;28;20461;-77
2021/03/29 12:59:20;;;;;;;3.67;2.33;;;25.70;36.20;;;;;;4974490;28;20930;-77
2021/03/29 13:01:46;;;;;;;4.23;2.70;;;25.50;33.00;;;;;;4974876;28;20547;-77